Observation data for Reese Center on 12/10/2018      Previous  Date       Current Mesonet Observations  Soil Data  Daily Summary Page  Observations in Plain Language
KREE 100600Z 29009KT M07/M08 A3037 RMK A01 T10721077  RH  098%=      5-min Rain = 0
KREE 100605Z 29009KT M07/M07 A3037 RMK A01 T10711074  RH  098%=      5-min Rain = 0
KREE 100610Z 29009KT M07/M07 A3037 RMK A01 T10681072  RH  098%=      5-min Rain = 0
KREE 100615Z 29009KT M07/M07 A3037 RMK A01 T10681072  RH  098%=      5-min Rain = 0
KREE 100620Z 29009KT M07/M07 A3037 RMK A01 T10691074  RH  097%=      5-min Rain = 0
KREE 100625Z 29009KT M07/M08 A3038 RMK A01 T10721077  RH  097%=      5-min Rain = 0
KREE 100630Z 29009KT M07/M08 A3038 RMK A01 T10731078  RH  097%=      5-min Rain = 0
KREE 100635Z 29009KT M07/M08 A3037 RMK A01 T10741079  RH  097%=      5-min Rain = 0
KREE 100640Z 29009KT M08/M08 A3037 RMK A01 T10751080  RH  097%=      5-min Rain = 0
KREE 100645Z 29009KT M08/M08 A3037 RMK A01 T10751080  RH  097%=      5-min Rain = 0
KREE 100650Z 29009KT M07/M08 A3037 RMK A01 T10741078  RH  098%=      5-min Rain = 0
KREE 100655Z 29008KT M07/M08 A3037 RMK A01 T10731079  RH  097%=      5-min Rain = 0
KREE 100700Z 29008KT M07/M08 A3036 RMK A01 T10731078  RH  097%=      5-min Rain = 0
KREE 100705Z 29009KT M07/M08 A3036 RMK A01 T10731078  RH  097%=      5-min Rain = 0
KREE 100710Z 29009KT M07/M08 A3036 RMK A01 T10731079  RH  097%=      5-min Rain = 0
KREE 100715Z 29009KT M07/M08 A3036 RMK A01 T10741080  RH  097%=      5-min Rain = 0
KREE 100720Z 29010KT M08/M08 A3036 RMK A01 T10751081  RH  097%=      5-min Rain = 0
KREE 100725Z 29009KT M08/M08 A3035 RMK A01 T10751080  RH  097%=      5-min Rain = 0
KREE 100730Z 29009KT M07/M08 A3035 RMK A01 T10741080  RH  097%=      5-min Rain = 0
KREE 100735Z 29010KT M07/M08 A3035 RMK A01 T10731078  RH  097%=      5-min Rain = 0
KREE 100740Z 29009KT M07/M08 A3035 RMK A01 T10721077  RH  098%=      5-min Rain = 0
KREE 100745Z 29010KT M07/M07 A3035 RMK A01 T10701074  RH  098%=      5-min Rain = 0
KREE 100750Z 29010KT M07/M07 A3035 RMK A01 T10691074  RH  098%=      5-min Rain = 0
KREE 100755Z 29009KT M07/M07 A3035 RMK A01 T10691074  RH  097%=      5-min Rain = 0
KREE 100800Z 29009KT M07/M08 A3035 RMK A01 T10711076  RH  097%=      5-min Rain = 0
KREE 100805Z 29009KT M07/M08 A3035 RMK A01 T10721078  RH  097%=      5-min Rain = 0
KREE 100810Z 29009KT M07/M08 A3035 RMK A01 T10741080  RH  097%=      5-min Rain = 0
KREE 100815Z 29009KT M08/M08 A3035 RMK A01 T10761081  RH  097%=      5-min Rain = 0
KREE 100820Z 29009KT M08/M08 A3035 RMK A01 T10751080  RH  098%=      5-min Rain = 0
KREE 100825Z 29009KT M07/M08 A3035 RMK A01 T10741078  RH  098%=      5-min Rain = 0
KREE 100830Z 29009KT M07/M08 A3034 RMK A01 T10741077  RH  098%=      5-min Rain = 0
KREE 100835Z 29009KT M07/M08 A3034 RMK A01 T10731077  RH  098%=      5-min Rain = 0
KREE 100840Z 29008KT M07/M08 A3034 RMK A01 T10741078  RH  098%=      5-min Rain = 0
KREE 100845Z 30008KT M07/M08 A3034 RMK A01 T10741079  RH  098%=      5-min Rain = 0
KREE 100850Z 29008KT M08/M08 A3034 RMK A01 T10751080  RH  098%=      5-min Rain = 0
KREE 100855Z 29009KT M08/M08 A3034 RMK A01 T10751079  RH  098%=      5-min Rain = 0
KREE 100900Z 28008KT M08/M08 A3034 RMK A01 T10761080  RH  098%=      5-min Rain = 0
KREE 100905Z 28009KT M08/M08 A3034 RMK A01 T10751079  RH  098%=      5-min Rain = 0
KREE 100910Z 29009KT M07/M08 A3034 RMK A01 T10721076  RH  098%=      5-min Rain = 0
KREE 100915Z 29009KT M07/M08 A3034 RMK A01 T10711076  RH  098%=      5-min Rain = 0
KREE 100920Z 29009KT M07/M08 A3034 RMK A01 T10741080  RH  097%=      5-min Rain = 0
KREE 100925Z 29009KT M08/M08 A3034 RMK A01 T10761082  RH  097%=      5-min Rain = 0
KREE 100930Z 29009KT M08/M08 A3034 RMK A01 T10781084  RH  097%=      5-min Rain = 0
KREE 100935Z 29010KT M08/M08 A3033 RMK A01 T10781083  RH  097%=      5-min Rain = 0
KREE 100940Z 30009KT M08/M08 A3033 RMK A01 T10761080  RH  098%=      5-min Rain = 0
KREE 100945Z 30009KT M08/M08 A3033 RMK A01 T10751081  RH  097%=      5-min Rain = 0
KREE 100950Z 30008KT M08/M08 A3033 RMK A01 T10771082  RH  097%=      5-min Rain = 0
KREE 100955Z 30008KT M08/M08 A3033 RMK A01 T10781083  RH  097%=      5-min Rain = 0
KREE 101000Z 30008KT M08/M08 A3033 RMK A01 T10751079  RH  098%=      5-min Rain = 0
KREE 101005Z 30008KT M07/M08 A3033 RMK A01 T10731078  RH  098%=      5-min Rain = 0
KREE 101010Z 31008KT M07/M08 A3033 RMK A01 T10721076  RH  098%=      5-min Rain = 0
KREE 101015Z 31008KT M07/M07 A3033 RMK A01 T10691073  RH  098%=      5-min Rain = 0
KREE 101020Z 30007KT M07/M07 A3033 RMK A01 T10691074  RH  098%=      5-min Rain = 0
KREE 101025Z 30007KT M07/M08 A3033 RMK A01 T10711076  RH  097%=      5-min Rain = 0
KREE 101030Z 30007KT M07/M08 A3033 RMK A01 T10731079  RH  097%=      5-min Rain = 0
KREE 101035Z 31007KT M07/M08 A3033 RMK A01 T10731077  RH  098%=      5-min Rain = 0
KREE 101040Z 32007KT M07/M08 A3033 RMK A01 T10741079  RH  097%=      5-min Rain = 0
KREE 101045Z 31008KT M07/M08 A3032 RMK A01 T10731077  RH  099%=      5-min Rain = 0
KREE 101050Z 30008KT M07/M08 A3033 RMK A01 T10711075  RH  099%=      5-min Rain = 0
KREE 101055Z 30007KT M07/M08 A3033 RMK A01 T10741080  RH  097%=      5-min Rain = 0
KREE 101100Z 30008KT M08/M08 A3033 RMK A01 T10771082  RH  097%=      5-min Rain = 0
KREE 101105Z 30008KT M08/M08 A3033 RMK A01 T10771082  RH  098%=      5-min Rain = 0
KREE 101110Z 31008KT M08/M08 A3032 RMK A01 T10761079  RH  099%=      5-min Rain = 0
KREE 101115Z 31009KT M08/M08 A3033 RMK A01 T10751079  RH  098%=      5-min Rain = 0
KREE 101120Z 31008KT M07/M08 A3033 RMK A01 T10731076  RH  099%=      5-min Rain = 0
KREE 101125Z 31008KT M07/M08 A3033 RMK A01 T10731077  RH  098%=      5-min Rain = 0
KREE 101130Z 31008KT M07/M08 A3033 RMK A01 T10731077  RH  098%=      5-min Rain = 0
KREE 101135Z 32008KT M07/M08 A3033 RMK A01 T10731076  RH  099%=      5-min Rain = 0
KREE 101140Z 32008KT M07/M07 A3033 RMK A01 T10711074  RH  099%=      5-min Rain = 0
KREE 101145Z 31007KT M07/M08 A3033 RMK A01 T10731077  RH  098%=      5-min Rain = 0
KREE 101150Z 31008KT M07/M08 A3033 RMK A01 T10731076  RH  099%=      5-min Rain = 0
KREE 101155Z 31007KT M07/M07 A3033 RMK A01 T10701072  RH  100%=      5-min Rain = 0
KREE 101200Z 32007KT M07/M08 A3033 RMK A01 T10731077  RH  098%=      5-min Rain = 0
KREE 101205Z 31007KT M07/M08 A3033 RMK A01 T10731076  RH  099%=      5-min Rain = 0
KREE 101210Z 31007KT M07/M07 A3033 RMK A01 T10701072  RH  100%=      5-min Rain = 0
KREE 101215Z 30006KT M08/M08 A3034 RMK A01 T10761082  RH  097%=      5-min Rain = 0
KREE 101220Z 30006KT M08/M09 A3034 RMK A01 T10821087  RH  097%=      5-min Rain = 0
KREE 101225Z 30007KT M08/M09 A3034 RMK A01 T10831088  RH  098%=      5-min Rain = 0
KREE 101230Z 29007KT M08/M09 A3034 RMK A01 T10841088  RH  098%=      5-min Rain = 0
KREE 101235Z 29008KT M08/M09 A3034 RMK A01 T10821086  RH  098%=      5-min Rain = 0
KREE 101240Z 29007KT M08/M09 A3034 RMK A01 T10821086  RH  098%=      5-min Rain = 0
KREE 101245Z 28008KT M08/M09 A3034 RMK A01 T10811085  RH  098%=      5-min Rain = 0
KREE 101250Z 28007KT M08/M08 A3034 RMK A01 T10801084  RH  099%=      5-min Rain = 0
KREE 101255Z 28007KT M08/M08 A3034 RMK A01 T10791082  RH  099%=      5-min Rain = 0
KREE 101300Z 28007KT M08/M08 A3035 RMK A01 T10791082  RH  098%=      5-min Rain = 0
KREE 101305Z 27006KT M08/M08 A3035 RMK A01 T10801084  RH  098%=      5-min Rain = 0
KREE 101310Z 28006KT M08/M09 A3035 RMK A01 T10811085  RH  098%=      5-min Rain = 0
KREE 101315Z 28006KT M08/M09 A3035 RMK A01 T10821087  RH  097%=      5-min Rain = 0
KREE 101320Z 28006KT M08/M09 A3035 RMK A01 T10831088  RH  097%=      5-min Rain = 0
KREE 101325Z 28006KT M08/M09 A3035 RMK A01 T10811086  RH  098%=      5-min Rain = 0
KREE 101330Z 28007KT M08/M09 A3035 RMK A01 T10801085  RH  098%=      5-min Rain = 0
KREE 101335Z 28006KT M08/M08 A3035 RMK A01 T10791084  RH  098%=      5-min Rain = 0
KREE 101340Z 28007KT M08/M08 A3035 RMK A01 T10781082  RH  098%=      5-min Rain = 0
KREE 101345Z 29006KT M08/M08 A3035 RMK A01 T10781082  RH  097%=      5-min Rain = 0
KREE 101350Z 29006KT M08/M08 A3035 RMK A01 T10781083  RH  097%=      5-min Rain = 0
KREE 101355Z 29006KT M08/M08 A3035 RMK A01 T10771082  RH  097%=      5-min Rain = 0
KREE 101400Z 29006KT M08/M08 A3035 RMK A01 T10771083  RH  097%=      5-min Rain = 0
KREE 101405Z 29006KT M08/M09 A3036 RMK A01 T10781085  RH  096%=      5-min Rain = 0
KREE 101410Z 29006KT M08/M09 A3036 RMK A01 T10791086  RH  096%=      5-min Rain = 0
KREE 101415Z 29007KT M08/M09 A3036 RMK A01 T10791087  RH  095%=      5-min Rain = 0
KREE 101420Z 29007KT M08/M09 A3036 RMK A01 T10791087  RH  095%=      5-min Rain = 0
KREE 101425Z 29007KT M08/M09 A3036 RMK A01 T10781086  RH  095%=      5-min Rain = 0
KREE 101430Z 28007KT M08/M08 A3036 RMK A01 T10761084  RH  095%=      5-min Rain = 0
KREE 101435Z 28006KT M07/M08 A3036 RMK A01 T10721081  RH  095%=      5-min Rain = 0
KREE 101440Z 28007KT M07/M07 A3036 RMK A01 T10661073  RH  096%=      5-min Rain = 0
KREE 101445Z 28007KT M06/M07 A3036 RMK A01 T10611071  RH  094%=      5-min Rain = 0
KREE 101450Z 28008KT M06/M07 A3036 RMK A01 T10581067  RH  095%=      5-min Rain = 0
KREE 101455Z 29008KT M06/M06 A3036 RMK A01 T10551064  RH  094%=      5-min Rain = 0
KREE 101500Z 29007KT M05/M06 A3036 RMK A01 T10531063  RH  093%=      5-min Rain = 0
KREE 101505Z 30007KT M05/M06 A3037 RMK A01 T10511063  RH  093%=      5-min Rain = 0
KREE 101510Z 30008KT M05/M06 A3037 RMK A01 T10501062  RH  092%=      5-min Rain = 0
KREE 101515Z 31007KT M05/M06 A3037 RMK A01 T10461059  RH  092%=      5-min Rain = 0
KREE 101520Z 31006KT M04/M06 A3037 RMK A01 T10431056  RH  092%=      5-min Rain = 0
KREE 101525Z 31006KT M04/M05 A3038 RMK A01 T10381050  RH  092%=      5-min Rain = 0
KREE 101530Z 31006KT M03/M05 A3038 RMK A01 T10331047  RH  091%=      5-min Rain = 0
KREE 101535Z 32005KT M03/M05 A3038 RMK A01 T10291045  RH  090%=      5-min Rain = 0
KREE 101540Z 32006KT M03/M04 A3038 RMK A01 T10271043  RH  090%=      5-min Rain = 0
KREE 101545Z 31006KT M02/M04 A3038 RMK A01 T10241040  RH  090%=      5-min Rain = 0
KREE 101550Z 31005KT M02/M04 A3038 RMK A01 T10211037  RH  090%=      5-min Rain = 0
KREE 101555Z 31006KT M02/M04 A3038 RMK A01 T10181035  RH  090%=      5-min Rain = 0
KREE 101600Z 31006KT M02/M04 A3038 RMK A01 T10181035  RH  089%=      5-min Rain = 0
KREE 101605Z 30006KT M02/M04 A3038 RMK A01 T10181035  RH  089%=      5-min Rain = 0
KREE 101610Z 30006KT M02/M03 A3038 RMK A01 T10161033  RH  089%=      5-min Rain = 0
KREE 101615Z 30006KT M02/M03 A3038 RMK A01 T10151032  RH  089%=      5-min Rain = 0
KREE 101620Z 30007KT M01/M03 A3038 RMK A01 T10131032  RH  088%=      5-min Rain = 0
KREE 101625Z 30008KT M01/M03 A3037 RMK A01 T10121032  RH  087%=      5-min Rain = 0
KREE 101630Z 30008KT M01/M03 A3037 RMK A01 T10111031  RH  087%=      5-min Rain = 0
KREE 101635Z 30007KT M01/M03 A3037 RMK A01 T10091029  RH  087%=      5-min Rain = 0
KREE 101640Z 30007KT M01/M03 A3037 RMK A01 T10061027  RH  087%=      5-min Rain = 0
KREE 101645Z 30007KT M00/M03 A3037 RMK A01 T10041026  RH  086%=      5-min Rain = 0
KREE 101650Z 30008KT M00/M03 A3037 RMK A01 T10021025  RH  086%=      5-min Rain = 0
KREE 101655Z 29008KT M00/M03 A3037 RMK A01 T10011026  RH  084%=      5-min Rain = 0
KREE 101700Z 29007KT M00/M03 A3037 RMK A01 T10011026  RH  085%=      5-min Rain = 0
KREE 101705Z 29007KT 00/02 A3037 RMK A01 T00-00-23  RH  085%=      5-min Rain = 0
KREE 101710Z 30007KT 00/M02 A3036 RMK A01 T00021022  RH  085%=      5-min Rain = 0
KREE 101715Z 30006KT 01/M02 A3036 RMK A01 T00051021  RH  084%=      5-min Rain = 0
KREE 101720Z 29006KT 01/M02 A3036 RMK A01 T00071019  RH  084%=      5-min Rain = 0
KREE 101725Z 29006KT 01/M02 A3036 RMK A01 T00071019  RH  083%=      5-min Rain = 0
KREE 101730Z 29006KT 01/M02 A3036 RMK A01 T00091019  RH  082%=      5-min Rain = 0
KREE 101735Z 28005KT 01/M02 A3036 RMK A01 T00131016  RH  082%=      5-min Rain = 0
KREE 101740Z 28004KT 02/M01 A3036 RMK A01 T00191013  RH  081%=      5-min Rain = 0
KREE 101745Z 27003KT 02/M01 A3036 RMK A01 T00231010  RH  079%=      5-min Rain = 0
KREE 101750Z 26004KT 03/M01 A3035 RMK A01 T00291009  RH  077%=      5-min Rain = 0
KREE 101755Z 26004KT 03/M01 A3035 RMK A01 T00331007  RH  076%=      5-min Rain = 0
KREE 101800Z 26005KT 04/M01 A3035 RMK A01 T00391006  RH  073%=      5-min Rain = 0
KREE 101805Z 27005KT 04/M01 A3034 RMK A01 T00411007  RH  072%=      5-min Rain = 0
KREE 101810Z 27005KT 04/M01 A3034 RMK A01 T00391006  RH  073%=      5-min Rain = 0
KREE 101815Z 27005KT 04/M01 A3034 RMK A01 T00391008  RH  072%=      5-min Rain = 0
KREE 101820Z 27005KT 04/M01 A3033 RMK A01 T00411006  RH  072%=      5-min Rain = 0
KREE 101825Z 27005KT 04/M01 A3033 RMK A01 T00431007  RH  071%=      5-min Rain = 0
KREE 101830Z 28005KT 04/M01 A3033 RMK A01 T00441007  RH  070%=      5-min Rain = 0
KREE 101835Z 28004KT 04/M01 A3033 RMK A01 T00441008  RH  070%=      5-min Rain = 0
KREE 101840Z 28004KT 05/M01 A3032 RMK A01 T00451007  RH  070%=      5-min Rain = 0
KREE 101845Z 28004KT 05/M01 A3032 RMK A01 T00471007  RH  069%=      5-min Rain = 0
KREE 101850Z 29004KT 05/M01 A3032 RMK A01 T00501006  RH  068%=      5-min Rain = 0
KREE 101855Z 28003KT 05/M00 A3032 RMK A01 T00531003  RH  068%=      5-min Rain = 0
KREE 101900Z 29003KT 06/M00 A3032 RMK A01 T00561002  RH  067%=      5-min Rain = 0
KREE 101905Z 30003KT 06/M00 A3032 RMK A01 T00571003  RH  066%=      5-min Rain = 0
KREE 101910Z 30003KT 06/M00 A3031 RMK A01 T00571002  RH  066%=      5-min Rain = 0
KREE 101915Z 29003KT 06/M00 A3031 RMK A01 T00581002  RH  066%=      5-min Rain = 0
KREE 101920Z 28003KT 06/M00 A3031 RMK A01 T00611002  RH  065%=      5-min Rain = 0
KREE 101925Z 28003KT 06/M00 A3031 RMK A01 T00621001  RH  065%=      5-min Rain = 0
KREE 101930Z 28003KT 06/M00 A303 RMK A01 T00631001  RH  064%=      5-min Rain = 0
KREE 101935Z 27003KT 07/00 A303 RMK A01 T006500-0  RH  064%=      5-min Rain = 0
KREE 101940Z 28003KT 07/00 A303 RMK A01 T006600-0  RH  063%=      5-min Rain = 0
KREE 101945Z 28004KT 07/00 A303 RMK A01 T00650000  RH  064%=      5-min Rain = 0
KREE 101950Z 28005KT 06/M00 A303 RMK A01 T00631001  RH  064%=      5-min Rain = 0
KREE 101955Z 28004KT 06/00 A303 RMK A01 T00630000  RH  065%=      5-min Rain = 0
KREE 102000Z 27004KT 07/00 A3029 RMK A01 T00650002  RH  065%=      5-min Rain = 0
KREE 102005Z 25005KT 07/00 A3029 RMK A01 T00680000  RH  063%=      5-min Rain = 0
KREE 102010Z 25006KT 07/M00 A3029 RMK A01 T00691001  RH  062%=      5-min Rain = 0
KREE 102015Z 25006KT 07/00 A3029 RMK A01 T007100-0  RH  061%=      5-min Rain = 0
KREE 102020Z 25005KT 07/00 A3029 RMK A01 T00710000  RH  061%=      5-min Rain = 0
KREE 102025Z 25005KT 07/00 A3029 RMK A01 T00720001  RH  061%=      5-min Rain = 0
KREE 102030Z 27004KT 07/00 A3028 RMK A01 T00740003  RH  061%=      5-min Rain = 0
KREE 102035Z 27004KT 07/00 A3028 RMK A01 T00740004  RH  062%=      5-min Rain = 0
KREE 102040Z 27004KT 07/01 A3028 RMK A01 T00740005  RH  063%=      5-min Rain = 0
KREE 102045Z 28003KT 07/01 A3028 RMK A01 T00730006  RH  063%=      5-min Rain = 0
KREE 102050Z 28003KT 07/01 A3028 RMK A01 T00740006  RH  063%=      5-min Rain = 0
KREE 102055Z 27004KT 08/01 A3028 RMK A01 T00760005  RH  062%=      5-min Rain = 0
KREE 102100Z 25004KT 08/01 A3028 RMK A01 T00780006  RH  061%=      5-min Rain = 0
KREE 102105Z 25004KT 08/01 A3027 RMK A01 T00800005  RH  059%=      5-min Rain = 0
KREE 102110Z 24004KT 08/01 A3027 RMK A01 T00820005  RH  059%=      5-min Rain = 0
KREE 102115Z 23005KT 08/00 A3027 RMK A01 T00820002  RH  058%=      5-min Rain = 0
KREE 102120Z 23004KT 08/00 A3027 RMK A01 T00820003  RH  058%=      5-min Rain = 0
KREE 102125Z 20003KT 08/01 A3027 RMK A01 T00840006  RH  059%=      5-min Rain = 0
KREE 102130Z 18002KT 09/01 A3027 RMK A01 T00880010  RH  058%=      5-min Rain = 0
KREE 102135Z 18003KT 10/01 A3027 RMK A01 T00950009  RH  055%=      5-min Rain = 0
KREE 102140Z 19004KT 09/01 A3027 RMK A01 T00870007  RH  058%=      5-min Rain = 0
KREE 102145Z 18004KT 08/00 A3027 RMK A01 T00820004  RH  059%=      5-min Rain = 0
KREE 102150Z 19004KT 08/00 A3027 RMK A01 T00800003  RH  059%=      5-min Rain = 0
KREE 102155Z 16004KT 08/01 A3027 RMK A01 T00790007  RH  061%=      5-min Rain = 0
KREE 102200Z 16004KT 08/01 A3027 RMK A01 T00820007  RH  060%=      5-min Rain = 0
KREE 102205Z 16003KT 08/01 A3027 RMK A01 T00800008  RH  061%=      5-min Rain = 0
KREE 102210Z 16003KT 08/01 A3027 RMK A01 T00810009  RH  061%=      5-min Rain = 0
KREE 102215Z 17003KT 08/01 A3027 RMK A01 T00820010  RH  061%=      5-min Rain = 0
KREE 102220Z 18003KT 09/01 A3027 RMK A01 T00860012  RH  061%=      5-min Rain = 0
KREE 102225Z 19003KT 09/01 A3027 RMK A01 T00860010  RH  060%=      5-min Rain = 0
KREE 102230Z 17002KT 09/01 A3027 RMK A01 T00860011  RH  060%=      5-min Rain = 0
KREE 102235Z 18002KT 08/01 A3027 RMK A01 T00840011  RH  061%=      5-min Rain = 0
KREE 102240Z 19002KT 08/01 A3027 RMK A01 T00840011  RH  061%=      5-min Rain = 0
KREE 102245Z 20002KT 08/01 A3027 RMK A01 T00790007  RH  061%=      5-min Rain = 0
KREE 102250Z 16001KT 08/01 A3027 RMK A01 T00760009  RH  063%=      5-min Rain = 0
KREE 102255Z 15001KT 07/01 A3027 RMK A01 T00730007  RH  064%=      5-min Rain = 0
KREE 102300Z 14002KT 07/01 A3027 RMK A01 T00700006  RH  065%=      5-min Rain = 0
KREE 102305Z 14002KT 07/01 A3027 RMK A01 T00690005  RH  065%=      5-min Rain = 0
KREE 102310Z 14003KT 07/01 A3027 RMK A01 T00660005  RH  065%=      5-min Rain = 0
KREE 102315Z 13002KT 06/00 A3028 RMK A01 T00630004  RH  067%=      5-min Rain = 0
KREE 102320Z 12002KT 06/01 A3028 RMK A01 T00590005  RH  069%=      5-min Rain = 0
KREE 102325Z 11003KT 06/01 A3027 RMK A01 T00560005  RH  071%=      5-min Rain = 0
KREE 102330Z 10004KT 06/01 A3027 RMK A01 T00550007  RH  072%=      5-min Rain = 0
KREE 102335Z 10004KT 05/01 A3027 RMK A01 T00480005  RH  075%=      5-min Rain = 0
KREE 102340Z 11004KT 04/01 A3027 RMK A01 T00440005  RH  076%=      5-min Rain = 0
KREE 102345Z 11004KT 04/00 A3027 RMK A01 T00430003  RH  076%=      5-min Rain = 0
KREE 102350Z 12005KT 04/00 A3027 RMK A01 T00420002  RH  076%=      5-min Rain = 0
KREE 102355Z 12004KT 04/00 A3027 RMK A01 T00400003  RH  078%=      5-min Rain = 0
KREE 110000Z 12004KT 04/00 A3027 RMK A01 T00390004  RH  079%=      5-min Rain = 0
KREE 110005Z 13004KT 04/01 A3027 RMK A01 T00410005  RH  078%=      5-min Rain = 0
KREE 110010Z 13005KT 04/00 A3027 RMK A01 T00410004  RH  078%=      5-min Rain = 0
KREE 110015Z 13005KT 04/00 A3027 RMK A01 T00390003  RH  078%=      5-min Rain = 0
KREE 110020Z 13005KT 03/00 A3027 RMK A01 T00340003  RH  081%=      5-min Rain = 0
KREE 110025Z 13005KT 03/00 A3027 RMK A01 T00300000  RH  082%=      5-min Rain = 0
KREE 110030Z 12005KT 02/M00 A3027 RMK A01 T00241002  RH  084%=      5-min Rain = 0
KREE 110035Z 12005KT 02/00 A3027 RMK A01 T00240001  RH  085%=      5-min Rain = 0
KREE 110040Z 13005KT 02/00 A3027 RMK A01 T00240001  RH  086%=      5-min Rain = 0
KREE 110045Z 13005KT 02/00 A3027 RMK A01 T00230001  RH  086%=      5-min Rain = 0
KREE 110050Z 13005KT 02/00 A3027 RMK A01 T00220000  RH  086%=      5-min Rain = 0
KREE 110055Z 13005KT 02/00 A3027 RMK A01 T00240002  RH  086%=      5-min Rain = 0
KREE 110100Z 14005KT 03/00 A3027 RMK A01 T00270004  RH  086%=      5-min Rain = 0
KREE 110105Z 14005KT 03/01 A3028 RMK A01 T00300007  RH  086%=      5-min Rain = 0
KREE 110110Z 14005KT 03/01 A3028 RMK A01 T00320006  RH  084%=      5-min Rain = 0
KREE 110115Z 14005KT 03/01 A3027 RMK A01 T00330007  RH  084%=      5-min Rain = 0
KREE 110120Z 14005KT 03/01 A3027 RMK A01 T00330006  RH  084%=      5-min Rain = 0
KREE 110125Z 14006KT 03/01 A3028 RMK A01 T00320006  RH  084%=      5-min Rain = 0
KREE 110130Z 14006KT 03/01 A3028 RMK A01 T00310005  RH  084%=      5-min Rain = 0
KREE 110135Z 14006KT 03/01 A3028 RMK A01 T00290005  RH  085%=      5-min Rain = 0
KREE 110140Z 14006KT 03/01 A3028 RMK A01 T00270005  RH  086%=      5-min Rain = 0
KREE 110145Z 15006KT 03/01 A3028 RMK A01 T00270005  RH  087%=      5-min Rain = 0
KREE 110150Z 15006KT 03/01 A3028 RMK A01 T00280006  RH  087%=      5-min Rain = 0
KREE 110155Z 16006KT 03/00 A3028 RMK A01 T00260003  RH  085%=      5-min Rain = 0
KREE 110200Z 15007KT 02/00 A3028 RMK A01 T00220001  RH  087%=      5-min Rain = 0
KREE 110205Z 16006KT 02/00 A3028 RMK A01 T00190000  RH  088%=      5-min Rain = 0
KREE 110210Z 16007KT 02/M00 A3028 RMK A01 T00161003  RH  088%=      5-min Rain = 0
KREE 110215Z 16007KT 01/M01 A3028 RMK A01 T00121005  RH  089%=      5-min Rain = 0
KREE 110220Z 16007KT 01/M01 A3028 RMK A01 T00101007  RH  090%=      5-min Rain = 0
KREE 110225Z 16007KT 01/M01 A3028 RMK A01 T00091006  RH  091%=      5-min Rain = 0
KREE 110230Z 16007KT 01/M01 A3028 RMK A01 T00091006  RH  091%=      5-min Rain = 0
KREE 110235Z 16007KT 01/M01 A3028 RMK A01 T00081006  RH  091%=      5-min Rain = 0
KREE 110240Z 16008KT 01/M01 A3028 RMK A01 T00081007  RH  091%=      5-min Rain = 0
KREE 110245Z 16008KT 01/M01 A3028 RMK A01 T00061009  RH  091%=      5-min Rain = 0
KREE 110250Z 16008KT 01/M01 A3028 RMK A01 T00051010  RH  091%=      5-min Rain = 0
KREE 110255Z 15008KT 00/M01 A3028 RMK A01 T00031012  RH  091%=      5-min Rain = 0
KREE 110300Z 16008KT 00/M01 A3028 RMK A01 T00021011  RH  091%=      5-min Rain = 0
KREE 110305Z 15008KT 00/M01 A3028 RMK A01 T00041010  RH  092%=      5-min Rain = 0
KREE 110310Z 15008KT 01/M01 A3028 RMK A01 T00051009  RH  091%=      5-min Rain = 0
KREE 110315Z 16009KT 01/M01 A3028 RMK A01 T00091008  RH  090%=      5-min Rain = 0
KREE 110320Z 16009KT 01/M01 A3028 RMK A01 T00111008  RH  088%=      5-min Rain = 0
KREE 110325Z 16009KT 01/M01 A3028 RMK A01 T00111010  RH  087%=      5-min Rain = 0
KREE 110330Z 16009KT 01/M01 A3028 RMK A01 T00111008  RH  088%=      5-min Rain = 0
KREE 110335Z 17010KT 01/M01 A3028 RMK A01 T00101008  RH  088%=      5-min Rain = 0
KREE 110340Z 17009KT 01/M01 A3028 RMK A01 T00111007  RH  089%=      5-min Rain = 0
KREE 110345Z 18010KT 01/M01 A3028 RMK A01 T00121005  RH  089%=      5-min Rain = 0
KREE 110350Z 18010KT 02/M00 A3028 RMK A01 T00161003  RH  089%=      5-min Rain = 0
KREE 110355Z 18009KT 02/M00 A3028 RMK A01 T00161003  RH  088%=      5-min Rain = 0
KREE 110400Z 19009KT 01/M00 A3028 RMK A01 T00141004  RH  089%=      5-min Rain = 0
KREE 110405Z 19009KT 01/M00 A3028 RMK A01 T00131004  RH  090%=      5-min Rain = 0
KREE 110410Z 19010KT 01/M00 A3028 RMK A01 T00131003  RH  090%=      5-min Rain = 0
KREE 110415Z 19010KT 01/M00 A3028 RMK A01 T00141003  RH  090%=      5-min Rain = 0
KREE 110420Z 19010KT 01/M00 A3028 RMK A01 T00131003  RH  090%=      5-min Rain = 0
KREE 110425Z 20010KT 01/M00 A3028 RMK A01 T00141002  RH  090%=      5-min Rain = 0
KREE 110430Z 20009KT 01/M00 A3028 RMK A01 T00131003  RH  090%=      5-min Rain = 0
KREE 110435Z 20009KT 02/00 A3028 RMK A01 T00170000  RH  090%=      5-min Rain = 0
KREE 110440Z 20008KT 02/M00 A3028 RMK A01 T00171001  RH  089%=      5-min Rain = 0
KREE 110445Z 21008KT 02/00 A3028 RMK A01 T00160000  RH  090%=      5-min Rain = 0
KREE 110450Z 20008KT 02/00 A3028 RMK A01 T001500-0  RH  090%=      5-min Rain = 0
KREE 110455Z 20008KT 01/M00 A3028 RMK A01 T00141001  RH  091%=      5-min Rain = 0
KREE 110500Z 20008KT 01/M00 A3028 RMK A01 T00131001  RH  092%=      5-min Rain = 0
KREE 110505Z 19008KT 01/M00 A3028 RMK A01 T00101004  RH  092%=      5-min Rain = 0
KREE 110510Z 20008KT 01/M00 A3028 RMK A01 T00081003  RH  093%=      5-min Rain = 0
KREE 110515Z 20008KT 01/M00 A3028 RMK A01 T00071004  RH  094%=      5-min Rain = 0
KREE 110520Z 20009KT 01/M00 A3028 RMK A01 T00081002  RH  094%=      5-min Rain = 0
KREE 110525Z 21009KT 01/M00 A3028 RMK A01 T00091001  RH  094%=      5-min Rain = 0
KREE 110530Z 21008KT 01/00 A3028 RMK A01 T00120001  RH  094%=      5-min Rain = 0
KREE 110535Z 21007KT 01/M00 A3028 RMK A01 T00091002  RH  093%=      5-min Rain = 0
KREE 110540Z 22007KT 01/M00 A3028 RMK A01 T00061004  RH  094%=      5-min Rain = 0
KREE 110545Z 21006KT 00/M01 A3027 RMK A01 T00021007  RH  095%=      5-min Rain = 0
KREE 110550Z 21006KT M00/M01 A3027 RMK A01 T10011009  RH  096%=      5-min Rain = 0
KREE 110555Z 21006KT M00/M01 A3027 RMK A01 T10031010  RH  096%=      5-min Rain = 0

Page generated in 0.009 seconds.